Time;durP1;ratioP1;P1;durP2;ratioP2;P2;SDS_P1;SDS_P2;PMS_P1;PMS_P2;Temp;Humidity;BMP_temperature;BMP_pressure;BME280_temperature;BME280_humidity;BME280_pressure;Samples;Min_cycle;Max_cycle;Signal;HPM_P1;HPM_P2
2022/08/12 00:43:53;;;;;;;;;;;19.10;54.40;;;;;;5089225;28;19924;-80
2022/08/12 00:46:30;;;;;;;;;;;19.10;54.50;;;;;;5087537;28;19908;-80
2022/08/12 00:48:56;;;;;;;;;;;19.10;54.50;;;;;;5088895;28;19919;-81
2022/08/12 00:51:22;;;;;;;;;;;19.10;54.40;;;;;;5088651;28;19923;-80
2022/08/12 00:53:47;;;;;;;;;;;19.10;54.30;;;;;;5070547;28;19912;-80
2022/08/12 00:56:13;;;;;;;;;;;19.10;54.20;;;;;;5088708;28;19919;-80
2022/08/12 00:58:45;;;;;;;;;;;19.10;54.30;;;;;;5087258;28;20352;-79
2022/08/12 01:01:10;;;;;;;;;;;19.10;54.30;;;;;;5088646;28;19918;-80
2022/08/12 01:11:50;;;;;;;;;;;19.00;54.20;;;;;;5088614;28;20395;-81
2022/08/12 01:14:17;;;;;;;;;;;19.00;54.20;;;;;;5086756;28;19912;-81
2022/08/12 01:16:44;;;;;;;;;;;19.00;54.20;;;;;;5088446;28;20363;-81
2022/08/12 01:19:11;;;;;;;;;;;19.00;54.20;;;;;;5088301;28;20394;-81
2022/08/12 01:21:56;;;;;;;;;;;19.00;54.80;;;;;;5088215;28;19912;-81
2022/08/12 01:24:27;;;;;;;;;;;18.90;54.30;;;;;;5086838;28;19912;-81
2022/08/12 01:26:54;;;;;;;;;;;18.90;54.30;;;;;;5088174;28;19935;-81
2022/08/12 01:29:24;;;;;;;;;;;18.80;54.40;;;;;;5088232;28;19919;-81
2022/08/12 01:31:50;;;;;;;;;;;18.80;54.50;;;;;;5088301;28;19916;-81
2022/08/12 01:34:21;;;;;;;;;;;18.80;54.40;;;;;;5088142;28;19908;-81
2022/08/12 01:36:53;;;;;;;;;;;18.80;54.30;;;;;;5088210;28;19917;-81
2022/08/12 01:39:20;;;;;;;;;;;18.80;54.20;;;;;;5087729;28;20356;-80
2022/08/12 01:41:53;;;;;;;;;;;18.80;54.20;;;;;;5086839;28;19961;-81
2022/08/12 01:44:19;;;;;;;;;;;18.80;54.40;;;;;;5087986;28;19908;-80
2022/08/12 01:46:46;;;;;;;;;;;18.80;54.40;;;;;;5086651;28;20015;-81
2022/08/12 01:49:12;;;;;;;;;;;18.80;54.40;;;;;;5087971;28;19982;-81
2022/08/12 01:51:42;;;;;;;;;;;18.80;54.90;;;;;;5087850;28;20372;-81
2022/08/12 01:54:12;;;;;;;;;;;18.80;54.40;;;;;;5086515;28;19982;-81
2022/08/12 01:56:42;;;;;;;;;;;18.70;54.40;;;;;;5086486;28;19943;-81
2022/08/12 02:01:55;;;;;;;;;;;18.70;54.50;;;;;;5088132;28;19931;-81
2022/08/12 02:13:27;;;;;;;;;;;18.50;54.60;;;;;;5087753;28;19953;-81
2022/08/12 02:15:57;;;;;;;;;;;18.40;54.70;;;;;;5086286;28;20468;-81
2022/08/12 02:18:29;;;;;;;;;;;18.30;54.80;;;;;;5086247;28;19961;-81
2022/08/12 02:21:00;;;;;;;;;;;18.30;54.90;;;;;;5087406;28;19908;-81
2022/08/12 02:23:27;;;;;;;;;;;18.30;55.00;;;;;;5087461;28;19909;-81
2022/08/12 02:26:14;;;;;;;;;;;18.40;55.00;;;;;;5088853;28;20446;-81
2022/08/12 02:28:40;;;;;;;;;;;18.40;54.90;;;;;;5091053;28;19921;-81
2022/08/12 02:31:07;;;;;;;;;;;18.40;54.80;;;;;;5073120;28;19936;-81
2022/08/12 02:33:33;;;;;;;;;;;18.40;54.80;;;;;;5091363;28;19916;-81
2022/08/12 02:36:01;;;;;;;;;;;18.40;54.90;;;;;;5090212;28;20308;-81
2022/08/12 02:38:27;;;;;;;;;;;18.40;54.80;;;;;;5091415;28;19908;-81
2022/08/12 02:40:53;;;;;;;;;;;18.40;54.70;;;;;;5091187;28;19924;-81
2022/08/12 02:43:29;;;;;;;;;;;18.40;54.70;;;;;;5073169;28;20007;-81
2022/08/12 02:46:07;;;;;;;;;;;18.50;54.70;;;;;;5091267;28;19930;-81
2022/08/12 02:48:53;;;;;;;;;;;18.50;54.60;;;;;;5091250;28;20322;-81
2022/08/12 02:51:22;;;;;;;;;;;18.40;54.60;;;;;;5091366;28;20267;-81
2022/08/12 02:53:49;;;;;;;;;;;18.40;54.70;;;;;;5091428;28;19914;-81
2022/08/12 02:56:15;;;;;;;;;;;18.40;54.80;;;;;;5089569;28;20363;-81
2022/08/12 02:58:41;;;;;;;;;;;18.30;54.80;;;;;;5089729;28;20364;-81
2022/08/12 03:01:10;;;;;;;;;;;18.30;54.80;;;;;;5091196;28;19908;-81
2022/08/12 03:03:36;;;;;;;;;;;18.20;54.90;;;;;;5089444;28;20003;-81
2022/08/12 03:06:14;;;;;;;;;;;18.20;54.90;;;;;;5089552;28;19912;-81
2022/08/12 03:08:42;;;;;;;;;;;18.20;55.00;;;;;;5090783;28;19916;-81
2022/08/12 03:11:26;;;;;;;;;;;18.10;55.00;;;;;;5089605;28;19923;-82
2022/08/12 03:13:56;;;;;;;;;;;18.10;55.10;;;;;;5089440;28;19915;-81
2022/08/12 03:16:22;;;;;;;;;;;18.00;55.10;;;;;;5090740;28;20294;-81
2022/08/12 03:18:49;;;;;;;;;;;18.00;55.10;;;;;;5090677;28;19908;-81
2022/08/12 03:21:15;;;;;;;;;;;18.00;55.10;;;;;;5089180;28;19908;-81
2022/08/12 03:23:43;;;;;;;;;;;18.00;55.20;;;;;;5090484;28;19911;-81
2022/08/12 03:26:10;;;;;;;;;;;18.00;55.30;;;;;;5089000;28;19908;-81
2022/08/12 03:28:52;;;;;;;;;;;18.00;55.30;;;;;;5090669;28;20252;-81
2022/08/12 03:31:21;;;;;;;;;;;17.90;55.20;;;;;;5090360;28;19919;-81
2022/08/12 03:33:47;;;;;;;;;;;17.90;55.20;;;;;;5089080;28;19915;-81
2022/08/12 03:36:17;;;;;;;;;;;17.90;55.30;;;;;;5089908;28;20287;-81
2022/08/12 03:38:49;;;;;;;;;;;17.90;55.30;;;;;;5088982;28;20360;-81
2022/08/12 03:41:36;;;;;;;;;;;17.90;55.30;;;;;;5089978;28;20325;-82
2022/08/12 04:00:34;;;;;;;;;;;17.80;55.40;;;;;;5090048;28;20375;-80
2022/08/12 04:03:00;;;;;;;;;;;17.80;55.40;;;;;;5089555;28;19959;-81
2022/08/12 04:05:29;;;;;;;;;;;17.80;55.40;;;;;;5071340;28;20001;-81
2022/08/12 04:07:56;;;;;;;;;;;17.80;55.40;;;;;;5088278;28;19935;-81
2022/08/12 04:13:13;;;;;;;;;;;17.70;55.30;;;;;;5089633;28;20423;-81
2022/08/12 04:13:18;;;;;;;;;;;17.70;55.40;;;;;;5089478;28;19908;-81
2022/08/12 04:15:45;;;;;;;;;;;17.70;55.40;;;;;;5089618;28;20467;-80
2022/08/12 04:18:11;;;;;;;;;;;17.70;55.40;;;;;;5088161;28;19923;-81
2022/08/12 04:20:41;;;;;;;;;;;17.70;55.40;;;;;;5089534;28;19912;-81
2022/08/12 04:23:11;;;;;;;;;;;17.70;55.40;;;;;;5089382;28;19948;-81
2022/08/12 04:25:38;;;;;;;;;;;17.70;55.40;;;;;;5089412;28;19962;-81
2022/08/12 04:28:06;;;;;;;;;;;17.70;55.40;;;;;;5089226;28;20008;-81
2022/08/12 04:30:31;;;;;;;;;;;17.70;55.40;;;;;;5089333;28;19920;-80
2022/08/12 04:32:57;;;;;;;;;;;17.70;55.40;;;;;;5087680;28;19922;-81
2022/08/12 04:35:23;;;;;;;;;;;17.70;55.40;;;;;;5070972;28;19912;-81
2022/08/12 04:37:53;;;;;;;;;;;17.60;55.30;;;;;;5087914;28;20364;-81
2022/08/12 04:40:21;;;;;;;;;;;17.60;55.40;;;;;;5088910;28;19920;-81
2022/08/12 04:42:46;;;;;;;;;;;17.60;55.40;;;;;;5087728;28;19908;-81
2022/08/12 04:45:12;;;;;;;;;;;17.50;55.40;;;;;;5087721;28;19913;-81
2022/08/12 04:47:38;;;;;;;;;;;17.60;55.50;;;;;;5086974;28;19916;-81
2022/08/12 04:50:03;;;;;;;;;;;17.60;55.50;;;;;;5087437;28;19919;-81
2022/08/12 04:52:29;;;;;;;;;;;17.60;55.50;;;;;;5070593;28;19916;-81
2022/08/12 04:54:55;;;;;;;;;;;17.60;55.50;;;;;;5088661;28;19919;-80
2022/08/12 04:57:20;;;;;;;;;;;17.60;55.50;;;;;;5088593;28;19955;-81
2022/08/12 04:59:46;;;;;;;;;;;17.60;55.50;;;;;;5088706;28;20006;-81
2022/08/12 05:02:12;;;;;;;;;;;17.60;55.40;;;;;;5088720;28;19981;-81
2022/08/12 05:04:38;;;;;;;;;;;17.60;55.30;;;;;;5087298;28;19954;-81
2022/08/12 05:07:05;;;;;;;;;;;17.60;55.40;;;;;;5087520;28;19912;-81
2022/08/12 05:09:30;;;;;;;;;;;17.50;55.40;;;;;;5088567;28;20307;-82
2022/08/12 05:11:56;;;;;;;;;;;17.50;55.40;;;;;;5088607;28;19919;-81
2022/08/12 05:14:22;;;;;;;;;;;17.50;55.50;;;;;;5088442;28;19916;-81
2022/08/12 05:16:48;;;;;;;;;;;17.50;55.50;;;;;;5087166;28;19912;-81
2022/08/12 05:19:15;;;;;;;;;;;17.40;55.50;;;;;;5088409;28;20023;-81
2022/08/12 05:21:43;;;;;;;;;;;17.40;55.60;;;;;;5088415;28;19919;-81
2022/08/12 05:24:09;;;;;;;;;;;17.40;55.70;;;;;;5088341;28;20245;-81
2022/08/12 05:26:35;;;;;;;;;;;17.40;55.70;;;;;;5086982;28;19995;-81
2022/08/12 05:29:00;;;;;;;;;;;17.40;55.70;;;;;;5088455;28;19965;-81
2022/08/12 05:31:26;;;;;;;;;;;17.50;55.70;;;;;;5088305;28;19920;-81
2022/08/12 05:33:51;;;;;;;;;;;17.50;55.60;;;;;;5088104;28;19912;-81
2022/08/12 05:36:18;;;;;;;;;;;17.60;55.60;;;;;;5088456;28;20419;-81
2022/08/12 05:38:57;;;;;;;;;;;17.60;55.50;;;;;;5088204;28;19908;-81
2022/08/12 05:41:27;;;;;;;;;;;17.60;55.50;;;;;;5087978;28;19920;-81
2022/08/12 05:43:54;;;;;;;;;;;17.60;55.60;;;;;;5086582;28;19925;-81
2022/08/12 05:46:20;;;;;;;;;;;17.60;55.70;;;;;;5086610;28;19910;-81
2022/08/12 05:48:46;;;;;;;;;;;17.60;55.70;;;;;;5086854;28;19916;-81
2022/08/12 05:51:11;;;;;;;;;;;17.60;55.70;;;;;;5087879;28;19912;-81
2022/08/12 05:53:38;;;;;;;;;;;17.60;55.80;;;;;;5087885;28;19909;-81
2022/08/12 05:56:04;;;;;;;;;;;17.70;55.80;;;;;;5087093;28;20364;-81
2022/08/12 05:58:29;;;;;;;;;;;17.80;55.80;;;;;;5070674;28;19959;-81
2022/08/12 06:00:55;;;;;;;;;;;17.80;55.70;;;;;;5091085;28;19912;-81
2022/08/12 06:03:21;;;;;;;;;;;17.90;55.80;;;;;;5092892;28;19999;-81
2022/08/12 06:05:48;;;;;;;;;;;17.90;55.70;;;;;;5091278;28;20206;-81
2022/08/12 06:08:15;;;;;;;;;;;18.00;55.70;;;;;;5090569;28;20081;-81
2022/08/12 06:10:40;;;;;;;;;;;18.00;55.70;;;;;;5092031;28;19912;-81
2022/08/12 06:13:06;;;;;;;;;;;18.00;55.70;;;;;;5091151;28;19912;-81
2022/08/12 06:15:36;;;;;;;;;;;18.10;55.70;;;;;;5092546;28;19938;-81
2022/08/12 06:18:06;;;;;;;;;;;18.20;55.70;;;;;;5090548;28;19966;-82
2022/08/12 06:20:32;;;;;;;;;;;18.30;55.80;;;;;;5092859;28;19962;-82
2022/08/12 06:22:58;;;;;;;;;;;18.30;55.70;;;;;;5090563;28;20392;-81
2022/08/12 06:25:26;;;;;;;;;;;18.40;55.80;;;;;;5090921;28;20284;-80
2022/08/12 06:27:52;;;;;;;;;;;18.40;55.80;;;;;;5091039;28;20011;-81
2022/08/12 06:30:20;;;;;;;;;;;18.80;56.20;;;;;;5090847;28;20007;-81
2022/08/12 06:32:47;;;;;;;;;;;19.60;55.80;;;;;;5092112;28;20198;-81
2022/08/12 06:35:13;;;;;;;;;;;20.10;55.20;;;;;;5092469;28;20288;-81
2022/08/12 06:37:39;;;;;;;;;;;20.50;54.50;;;;;;5093102;28;19908;-81
2022/08/12 06:40:06;;;;;;;;;;;20.40;54.40;;;;;;5091268;28;19920;-81
2022/08/12 06:42:46;;;;;;;;;;;20.20;54.60;;;;;;5091832;28;19912;-81
2022/08/12 06:45:15;;;;;;;;;;;20.00;54.90;;;;;;5095052;28;19912;-81
2022/08/12 06:47:41;;;;;;;;;;;19.80;55.10;;;;;;5092403;28;20382;-81
2022/08/12 06:50:07;;;;;;;;;;;19.70;55.30;;;;;;5090407;28;19974;-82
2022/08/12 06:52:32;;;;;;;;;;;19.70;55.40;;;;;;5090521;28;19934;-81
2022/08/12 06:54:58;;;;;;;;;;;19.70;55.50;;;;;;5073149;28;19916;-80
2022/08/12 06:57:28;;;;;;;;;;;19.70;55.50;;;;;;5091366;28;20394;-81
2022/08/12 06:59:54;;;;;;;;;;;19.80;55.60;;;;;;5090133;28;19916;-80
2022/08/12 07:02:21;;;;;;;;;;;19.80;55.50;;;;;;5090931;28;20317;-81
2022/08/12 07:04:47;;;;;;;;;;;19.90;55.50;;;;;;5091054;28;20364;-81
2022/08/12 07:07:13;;;;;;;;;;;19.90;55.60;;;;;;5091058;28;19942;-82
2022/08/12 07:09:38;;;;;;;;;;;20.00;55.60;;;;;;5091450;28;19931;-82
2022/08/12 07:12:04;;;;;;;;;;;20.00;55.60;;;;;;5089914;28;19908;-82
2022/08/12 07:14:30;;;;;;;;;;;20.10;55.60;;;;;;5091210;28;19927;-81
2022/08/12 07:16:56;;;;;;;;;;;20.10;55.60;;;;;;5090266;28;20271;-81
2022/08/12 07:19:21;;;;;;;;;;;20.40;56.00;;;;;;5089441;28;19915;-82
2022/08/12 07:21:47;;;;;;;;;;;21.20;56.70;;;;;;5091707;28;19987;-82
2022/08/12 07:24:13;;;;;;;;;;;22.60;56.60;;;;;;5072986;28;19916;-82
2022/08/12 07:26:40;;;;;;;;;;;24.30;55.50;;;;;;5089987;28;19916;-82
2022/08/12 07:29:08;;;;;;;;;;;25.10;54.20;;;;;;5093062;28;20120;-81
2022/08/12 07:31:34;;;;;;;;;;;25.30;53.70;;;;;;5090221;28;19920;-81
2022/08/12 07:34:00;;;;;;;;;;;25.20;53.70;;;;;;5092562;28;19916;-82
2022/08/12 07:36:26;;;;;;;;;;;25.30;54.50;;;;;;5089385;28;20368;-82
2022/08/12 07:38:52;;;;;;;;;;;26.40;55.20;;;;;;5089492;28;19913;-82
2022/08/12 07:41:19;;;;;;;;;;;27.60;54.70;;;;;;5092115;28;19928;-81
2022/08/12 07:43:44;;;;;;;;;;;28.50;54.00;;;;;;5093126;28;20424;-81
2022/08/12 07:46:11;;;;;;;;;;;29.20;54.30;;;;;;5089812;28;20016;-82
2022/08/12 07:48:39;;;;;;;;;;;30.20;54.30;;;;;;5097713;28;19915;-82
2022/08/12 07:51:05;;;;;;;;;;;31.00;54.10;;;;;;5092593;28;20002;-82
2022/08/12 07:53:30;;;;;;;;;;;31.70;53.90;;;;;;5100791;28;19958;-83
2022/08/12 07:55:56;;;;;;;;;;;32.20;54.00;;;;;;5097279;28;19912;-82
2022/08/12 07:58:25;;;;;;;;;;;32.60;54.10;;;;;;5097985;28;19966;-82
2022/08/12 08:00:52;;;;;;;;;;;32.70;54.10;;;;;;5102208;28;19991;-83
2022/08/12 08:03:17;;;;;;;;;;;32.80;54.50;;;;;;5096146;28;19912;-83
2022/08/12 08:05:45;;;;;;;;;;;33.10;54.60;;;;;;5095003;28;19907;-77
2022/08/12 08:08:14;;;;;;;;;;;33.10;54.80;;;;;;5077947;28;19927;-83
2022/08/12 08:10:40;;;;;;;;;;;33.20;55.20;;;;;;5093907;28;19920;-84
2022/08/12 08:13:07;;;;;;;;;;;33.50;55.50;;;;;;5094878;28;19912;-82
2022/08/12 08:15:33;;;;;;;;;;;34.10;55.60;;;;;;5095146;28;20010;-82
2022/08/12 08:18:01;;;;;;;;;;;34.60;55.70;;;;;;5096151;28;19919;-82
2022/08/12 08:20:29;;;;;;;;;;;35.20;55.50;;;;;;5096190;28;20293;-82
2022/08/12 08:22:55;;;;;;;;;;;35.50;55.20;;;;;;5099061;28;19919;-84
2022/08/12 08:25:21;;;;;;;;;;;35.70;55.80;;;;;;5106714;28;19912;-83
2022/08/12 08:27:47;;;;;;;;;;;36.00;55.20;;;;;;5092564;28;19912;-82
2022/08/12 08:30:13;;;;;;;;;;;36.20;55.40;;;;;;5093374;28;19939;-84
2022/08/12 08:32:39;;;;;;;;;;;36.50;55.30;;;;;;5093918;28;19912;-83
2022/08/12 08:35:09;;;;;;;;;;;36.50;55.30;;;;;;5092587;28;19908;-83
2022/08/12 08:37:35;;;;;;;;;;;36.50;55.20;;;;;;5095732;28;20436;-83
2022/08/12 08:42:35;;;;;;;;;;;36.50;55.80;;;;;;5097410;28;19920;-84
2022/08/12 08:42:46;;;;;;;;;;;36.60;55.80;;;;;;5094354;28;19916;-82
2022/08/12 08:45:12;;;;;;;;;;;36.80;55.80;;;;;;5094581;28;20394;-83
2022/08/12 08:47:42;;;;;;;;;;;37.00;55.80;;;;;;5095207;28;19950;-82
2022/08/12 08:50:08;;;;;;;;;;;37.00;56.20;;;;;;5095751;28;19922;-83
2022/08/12 08:52:36;;;;;;;;;;;37.00;56.30;;;;;;5091994;28;19920;-82
2022/08/12 08:55:02;;;;;;;;;;;37.40;56.80;;;;;;5097976;28;19944;-83
2022/08/12 08:57:27;;;;;;;;;;;37.90;56.70;;;;;;5097877;28;20323;-82
2022/08/12 08:59:53;;;;;;;;;;;38.10;56.30;;;;;;5095884;28;19998;-75
2022/08/12 09:02:19;;;;;;;;;;;38.30;56.30;;;;;;5093766;28;19908;-84
2022/08/12 09:04:44;;;;;;;;;;;38.60;56.30;;;;;;5096814;28;19912;-83
2022/08/12 09:07:11;;;;;;;;;;;38.80;56.00;;;;;;5098434;28;19923;-82
2022/08/12 09:09:37;;;;;;;;;;;38.60;55.90;;;;;;5096947;28;20279;-83
2022/08/12 09:14:47;;;;;;;;;;;38.50;56.20;;;;;;5095552;28;19962;-82
2022/08/12 09:17:13;;;;;;;;;;;38.50;56.70;;;;;;5093416;28;19912;-84
2022/08/12 09:19:39;;;;;;;;;;;38.60;57.00;;;;;;5094517;28;19922;-82
2022/08/12 09:22:07;;;;;;;;;;;38.70;57.00;;;;;;5095007;28;19996;-82
2022/08/12 09:24:33;;;;;;;;;;;38.70;57.20;;;;;;5098430;28;19912;-84
2022/08/12 09:26:58;;;;;;;;;;;38.70;57.60;;;;;;5100925;28;19916;-84
2022/08/12 09:29:24;;;;;;;;;;;39.10;57.40;;;;;;5097468;28;19912;-82
2022/08/12 09:31:51;;;;;;;;;;;39.40;57.10;;;;;;5089064;28;19955;-75
2022/08/12 09:34:17;;;;;;;;;;;39.40;57.00;;;;;;5086116;28;19978;-75
2022/08/12 09:36:43;;;;;;;;;;;39.50;57.10;;;;;;5085257;28;19912;-75
2022/08/12 09:39:08;;;;;;;;;;;39.30;57.10;;;;;;5085134;28;19914;-75
2022/08/12 09:41:41;;;;;;;;;;;39.20;57.20;;;;;;5087569;28;19920;-75
2022/08/12 09:46:50;;;;;;;;;;;39.30;57.30;;;;;;5084999;28;20011;-75
2022/08/12 09:49:16;;;;;;;;;;;39.30;57.30;;;;;;5075011;28;20007;-75
2022/08/12 09:51:42;;;;;;;;;;;39.50;57.50;;;;;;5079260;28;19927;-75
2022/08/12 09:54:11;;;;;;;;;;;39.70;57.30;;;;;;5076927;28;19908;-75
2022/08/12 09:56:44;;;;;;;;;;;39.50;57.40;;;;;;5076808;28;19963;-75
2022/08/12 09:59:09;;;;;;;;;;;39.60;57.70;;;;;;5073118;28;19924;-76
2022/08/12 10:01:39;;;;;;;;;;;39.50;57.70;;;;;;5075428;28;19912;-75
2022/08/12 10:04:09;;;;;;;;;;;39.60;57.90;;;;;;5078340;28;19908;-75
2022/08/12 10:06:38;;;;;;;;;;;39.90;57.80;;;;;;5075786;28;19920;-75
2022/08/12 10:09:05;;;;;;;;;;;40.00;57.40;;;;;;5073358;28;19916;-75
2022/08/12 10:14:15;;;;;;;;;;;40.10;57.30;;;;;;5077049;28;19995;-75
2022/08/12 10:16:44;;;;;;;;;;;40.20;57.30;;;;;;5076413;28;19990;-75
2022/08/12 10:19:10;;;;;;;;;;;40.30;57.50;;;;;;5075413;28;19912;-75
2022/08/12 10:21:36;;;;;;;;;;;40.10;57.50;;;;;;5077163;28;19948;-75
2022/08/12 10:24:22;;;;;;;;;;;40.00;57.90;;;;;;5077400;28;20010;-75
2022/08/12 10:29:37;;;;;;;;;;;40.20;58.00;;;;;;5078470;28;19924;-75
2022/08/12 10:32:11;;;;;;;;;;;40.60;57.90;;;;;;5084661;28;19912;-75
2022/08/12 10:34:36;;;;;;;;;;;41.00;57.90;;;;;;5086899;28;19954;-75
2022/08/12 10:37:03;;;;;;;;;;;41.40;57.70;;;;;;5082453;28;19920;-75
2022/08/12 10:39:32;;;;;;;;;;;41.60;57.60;;;;;;5086898;28;19943;-75
2022/08/12 10:44:42;;;;;;;;;;;42.00;57.30;;;;;;5087663;28;19923;-75
2022/08/12 10:47:08;;;;;;;;;;;42.30;57.90;;;;;;5089518;28;20353;-75
2022/08/12 10:49:35;;;;;;;;;;;42.70;57.80;;;;;;5091548;28;19912;-75
2022/08/12 10:52:03;;;;;;;;;;;42.80;57.10;;;;;;5089483;28;19924;-75
2022/08/12 10:54:29;;;;;;;;;;;42.90;57.10;;;;;;5089440;28;19981;-75
2022/08/12 10:56:56;;;;;;;;;;;42.90;57.20;;;;;;5091143;28;20356;-75
2022/08/12 10:59:28;;;;;;;;;;;42.90;57.40;;;;;;5088146;28;19912;-75
2022/08/12 11:01:57;;;;;;;;;;;42.80;57.30;;;;;;5090536;28;19916;-75
2022/08/12 11:04:24;;;;;;;;;;;42.70;57.40;;;;;;5087667;28;20041;-75
2022/08/12 11:06:52;;;;;;;;;;;42.70;57.50;;;;;;5090727;28;19908;-75
2022/08/12 11:09:30;;;;;;;;;;;42.80;57.30;;;;;;5088932;28;19913;-75
2022/08/12 11:11:56;;;;;;;;;;;42.50;57.50;;;;;;5090611;28;20332;-76
2022/08/12 11:14:31;;;;;;;;;;;42.40;57.70;;;;;;5089939;28;20376;-75
2022/08/12 11:16:57;;;;;;;;;;;42.30;57.90;;;;;;5090115;28;19923;-76
2022/08/12 11:19:23;;;;;;;;;;;42.20;57.70;;;;;;5090455;28;19916;-76
2022/08/12 11:21:50;;;;;;;;;;;42.10;57.70;;;;;;5088904;28;19981;-76
2022/08/12 11:24:17;;;;;;;;;;;42.20;57.80;;;;;;5090513;28;19940;-76
2022/08/12 11:26:42;;;;;;;;;;;42.10;57.90;;;;;;5090407;28;20480;-75
2022/08/12 11:29:08;;;;;;;;;;;42.00;57.90;;;;;;5089066;28;20006;-75
2022/08/12 11:31:33;;;;;;;;;;;41.70;57.60;;;;;;5072066;28;20015;-74
2022/08/12 11:33:59;;;;;;;;;;;41.70;57.80;;;;;;5088882;28;20159;-75
2022/08/12 11:36:24;;;;;;;;;;;41.30;58.00;;;;;;5088980;28;19914;-76
2022/08/12 11:38:50;;;;;;;;;;;41.10;58.40;;;;;;5089563;28;19930;-75
2022/08/12 11:41:16;;;;;;;;;;;41.10;58.50;;;;;;5088322;28;20402;-75
2022/08/12 11:43:42;;;;;;;;;;;40.70;58.30;;;;;;5088359;28;19930;-76
2022/08/12 11:46:07;;;;;;;;;;;40.30;58.70;;;;;;5087167;28;20015;-75
2022/08/12 11:48:38;;;;;;;;;;;40.20;58.90;;;;;;5088605;28;19997;-76
2022/08/12 11:51:04;;;;;;;;;;;40.30;59.00;;;;;;5088531;28;19923;-76
2022/08/12 11:53:30;;;;;;;;;;;40.30;58.60;;;;;;5088787;28;19912;-76
2022/08/12 11:55:56;;;;;;;;;;;40.40;58.60;;;;;;5088342;28;19912;-75
2022/08/12 11:58:21;;;;;;;;;;;40.30;58.30;;;;;;5089510;28;20358;-75
2022/08/12 12:00:47;;;;;;;;;;;40.30;58.30;;;;;;5089755;28;19912;-76
2022/08/12 12:03:12;;;;;;;;;;;40.50;58.50;;;;;;5089230;28;19915;-75
2022/08/12 12:05:38;;;;;;;;;;;40.70;58.20;;;;;;5070995;28;20522;-75
2022/08/12 12:08:04;;;;;;;;;;;40.80;58.20;;;;;;5089590;28;19916;-75
2022/08/12 12:10:29;;;;;;;;;;;40.70;57.80;;;;;;5089130;28;19935;-76
2022/08/12 12:12:55;;;;;;;;;;;40.30;58.20;;;;;;5090225;28;19923;-75
2022/08/12 12:15:20;;;;;;;;;;;40.00;58.60;;;;;;5089511;28;20030;-75
2022/08/12 12:17:48;;;;;;;;;;;40.00;58.70;;;;;;5088319;28;19922;-75
2022/08/12 12:20:14;;;;;;;;;;;40.10;58.40;;;;;;5089034;28;19912;-74
2022/08/12 12:22:40;;;;;;;;;;;40.00;58.20;;;;;;5088817;28;20000;-73
2022/08/12 12:25:06;;;;;;;;;;;39.90;58.40;;;;;;5078261;28;19961;-72
2022/08/12 12:27:51;;;;;;;;;;;39.80;58.50;;;;;;5079332;28;20011;-72
2022/08/12 12:30:17;;;;;;;;;;;39.80;58.20;;;;;;5083595;28;19955;-71
2022/08/12 12:32:43;;;;;;;;;;;39.80;58.00;;;;;;5088280;28;19958;-72
2022/08/12 12:35:09;;;;;;;;;;;39.50;57.90;;;;;;5088889;28;19908;-72
2022/08/12 12:37:48;;;;;;;;;;;39.10;58.30;;;;;;5088735;28;19935;-72
2022/08/12 12:40:14;;;;;;;;;;;38.90;58.60;;;;;;5088440;28;19945;-72
2022/08/12 12:42:39;;;;;;;;;;;38.80;58.50;;;;;;5088623;28;20356;-71
2022/08/12 12:45:05;;;;;;;;;;;38.80;58.50;;;;;;5088260;28;19921;-72
2022/08/12 12:47:31;;;;;;;;;;;38.60;58.20;;;;;;5088506;28;19916;-71
2022/08/12 12:49:56;;;;;;;;;;;38.30;58.60;;;;;;5088539;28;19942;-71
2022/08/12 12:52:22;;;;;;;;;;;38.30;58.60;;;;;;5088734;28;19916;-71
2022/08/12 12:54:57;;;;;;;;;;;38.30;58.60;;;;;;5088894;28;20283;-71
2022/08/12 12:57:24;;;;;;;;;;;38.40;58.60;;;;;;5088572;28;19916;-71
2022/08/12 13:00:13;;;;;;;;;;;38.70;58.50;;;;;;5088965;28;19912;-75
2022/08/12 13:02:39;;;;;;;;;;;39.00;58.30;;;;;;5088173;28;20256;-76
2022/08/12 13:05:05;;;;;;;;;;;39.30;57.90;;;;;;5086825;28;20007;-75
2022/08/12 13:07:31;;;;;;;;;;;39.50;57.60;;;;;;5088399;28;19969;-75
2022/08/12 13:09:56;;;;;;;;;;;39.40;57.80;;;;;;5087937;28;19912;-75
2022/08/12 13:12:23;;;;;;;;;;;39.40;57.40;;;;;;5088236;28;19919;-75
2022/08/12 13:14:48;;;;;;;;;;;39.40;57.30;;;;;;5088433;28;19927;-79
2022/08/12 13:17:16;;;;;;;;;;;39.40;57.50;;;;;;5087334;28;19916;-78
2022/08/12 13:19:41;;;;;;;;;;;39.30;57.40;;;;;;5088549;28;19908;-77
2022/08/12 13:22:19;;;;;;;;;;;39.30;57.50;;;;;;5088601;28;19919;-76
2022/08/12 13:24:50;;;;;;;;;;;39.00;57.60;;;;;;5081336;28;19947;-76
2022/08/12 13:27:15;;;;;;;;;;;38.60;57.80;;;;;;5088220;28;19983;-75
2022/08/12 13:29:41;;;;;;;;;;;38.20;57.80;;;;;;5087273;28;19947;-75
2022/08/12 13:32:06;;;;;;;;;;;37.90;58.40;;;;;;5087571;28;19923;-75
2022/08/12 13:34:32;;;;;;;;;;;37.20;57.40;;;;;;5086542;28;19991;-75
2022/08/12 13:36:57;;;;;;;;;;;36.40;57.50;;;;;;5087909;28;19920;-75
2022/08/12 13:39:23;;;;;;;;;;;35.60;57.30;;;;;;5087595;28;19912;-75
2022/08/12 13:41:50;;;;;;;;;;;34.70;57.40;;;;;;5087908;28;19919;-75
2022/08/12 13:44:15;;;;;;;;;;;34.00;57.50;;;;;;5087456;28;20264;-74
2022/08/12 13:46:41;;;;;;;;;;;33.50;57.60;;;;;;5087462;28;19915;-75
2022/08/12 13:49:10;;;;;;;;;;;33.10;57.60;;;;;;5086274;28;19912;-74
2022/08/12 13:51:36;;;;;;;;;;;32.90;57.50;;;;;;5087388;28;20307;-75
2022/08/12 13:54:03;;;;;;;;;;;32.80;57.30;;;;;;5087327;28;20416;-75
2022/08/12 13:56:32;;;;;;;;;;;32.60;57.00;;;;;;5087439;28;20391;-75
2022/08/12 13:59:00;;;;;;;;;;;32.40;56.80;;;;;;5087189;28;19961;-76
2022/08/12 14:01:27;;;;;;;;;;;32.20;56.80;;;;;;5084388;28;20260;-76
2022/08/12 14:03:52;;;;;;;;;;;32.10;56.70;;;;;;5086825;28;19920;-75
2022/08/12 14:06:19;;;;;;;;;;;32.10;56.50;;;;;;5087311;28;20023;-75
2022/08/12 14:08:47;;;;;;;;;;;32.20;56.40;;;;;;5087454;28;19983;-75
2022/08/12 14:11:13;;;;;;;;;;;32.10;56.10;;;;;;5087447;28;19919;-76
2022/08/12 14:13:40;;;;;;;;;;;32.00;56.10;;;;;;5087633;28;19916;-75
2022/08/12 14:16:06;;;;;;;;;;;31.90;56.00;;;;;;5086321;28;19935;-71
2022/08/12 14:18:33;;;;;;;;;;;31.90;56.50;;;;;;5087531;28;19916;-75
2022/08/12 14:21:00;;;;;;;;;;;31.80;56.00;;;;;;5090581;28;19916;-75
2022/08/12 14:23:33;;;;;;;;;;;31.60;55.80;;;;;;5091767;28;20620;-75
2022/08/12 14:25:59;;;;;;;;;;;31.50;55.80;;;;;;5091437;28;19918;-74
2022/08/12 14:28:33;;;;;;;;;;;31.40;55.70;;;;;;5090995;28;19908;-74
2022/08/12 14:31:10;;;;;;;;;;;31.40;55.60;;;;;;5091358;28;19942;-73
2022/08/12 14:33:47;;;;;;;;;;;31.30;55.60;;;;;;5091624;28;19931;-74
2022/08/12 14:36:13;;;;;;;;;;;31.30;55.60;;;;;;5091590;28;20284;-75
2022/08/12 14:38:43;;;;;;;;;;;31.20;55.50;;;;;;5092215;28;20452;-75
2022/08/12 14:41:09;;;;;;;;;;;31.10;55.50;;;;;;5090280;28;19923;-74
2022/08/12 14:43:38;;;;;;;;;;;31.00;55.40;;;;;;5091608;28;19999;-74
2022/08/12 14:46:05;;;;;;;;;;;30.90;55.30;;;;;;5090152;28;19958;-74
2022/08/12 14:48:30;;;;;;;;;;;30.80;55.20;;;;;;5091475;28;19961;-75
2022/08/12 14:50:56;;;;;;;;;;;30.80;55.40;;;;;;5089953;28;19916;-74
2022/08/12 14:53:22;;;;;;;;;;;30.70;55.30;;;;;;5091208;28;19912;-74
2022/08/12 14:55:48;;;;;;;;;;;30.70;55.40;;;;;;5089948;28;20269;-74
2022/08/12 14:58:17;;;;;;;;;;;30.80;55.30;;;;;;5090973;28;20536;-74
2022/08/12 15:03:28;;;;;;;;;;;31.00;55.10;;;;;;5089798;28;19924;-74
2022/08/12 15:05:58;;;;;;;;;;;31.00;55.00;;;;;;5089567;28;19916;-74
2022/08/12 15:08:26;;;;;;;;;;;30.90;54.90;;;;;;5090691;28;19908;-74
2022/08/12 15:10:52;;;;;;;;;;;30.80;54.90;;;;;;5090376;28;19928;-74
2022/08/12 15:13:18;;;;;;;;;;;30.70;55.10;;;;;;5090602;28;19957;-75
2022/08/12 15:15:44;;;;;;;;;;;30.70;55.10;;;;;;5090884;28;19913;-74
2022/08/12 15:18:11;;;;;;;;;;;30.70;54.90;;;;;;5091324;28;19912;-73
2022/08/12 15:20:37;;;;;;;;;;;30.70;54.80;;;;;;5090627;28;19915;-73
2022/08/12 15:23:03;;;;;;;;;;;30.60;54.80;;;;;;5090558;28;19983;-74
2022/08/12 15:25:29;;;;;;;;;;;30.60;54.80;;;;;;5090281;28;20052;-73
2022/08/12 15:27:58;;;;;;;;;;;30.50;54.90;;;;;;5090307;28;19916;-73
2022/08/12 15:30:25;;;;;;;;;;;30.40;54.80;;;;;;5090323;28;19912;-73
2022/08/12 15:32:52;;;;;;;;;;;30.50;54.80;;;;;;5088186;28;20391;-73
2022/08/12 15:35:21;;;;;;;;;;;30.40;54.70;;;;;;5090197;28;19994;-72
2022/08/12 15:38:01;;;;;;;;;;;30.30;54.80;;;;;;5090242;28;20259;-73
2022/08/12 15:40:32;;;;;;;;;;;30.30;54.70;;;;;;5089405;28;19924;-74
2022/08/12 15:42:58;;;;;;;;;;;30.30;54.70;;;;;;5089445;28;19908;-73
2022/08/12 15:45:25;;;;;;;;;;;30.30;54.60;;;;;;5088024;28;19919;-72
2022/08/12 15:47:53;;;;;;;;;;;30.20;54.50;;;;;;5088881;28;19913;-70
2022/08/12 15:50:22;;;;;;;;;;;30.10;54.60;;;;;;5088659;28;19916;-73
2022/08/12 15:52:49;;;;;;;;;;;30.10;54.60;;;;;;5090024;28;19908;-73
2022/08/12 15:55:15;;;;;;;;;;;30.10;54.60;;;;;;5088591;28;20030;-74